createdAt,value
2023-04-12T00:02:05.154Z,12.50
2023-04-12T00:04:34.896Z,12.60
2023-04-12T00:07:03.024Z,12.50
2023-04-12T00:09:30.825Z,12.60
2023-04-12T00:11:59.631Z,12.60
2023-04-12T00:14:26.886Z,12.50
2023-04-12T00:16:54.899Z,12.50
2023-04-12T00:19:22.194Z,12.50
2023-04-12T00:21:49.704Z,12.50
2023-04-12T00:24:17.124Z,12.50
2023-04-12T00:26:44.351Z,12.50
2023-04-12T00:29:11.611Z,12.50
2023-04-12T00:31:38.858Z,12.50
2023-04-12T00:34:06.284Z,12.50
2023-04-12T00:36:33.521Z,12.60
2023-04-12T00:39:00.716Z,12.60
2023-04-12T00:41:30.032Z,12.60
2023-04-12T00:43:57.624Z,12.60
2023-04-12T00:46:24.953Z,12.60
2023-04-12T00:48:52.351Z,12.70
2023-04-12T00:51:22.321Z,12.60
2023-04-12T00:53:49.648Z,12.60
2023-04-12T00:56:17.261Z,12.60
2023-04-12T00:58:44.695Z,12.60
2023-04-12T01:01:11.965Z,12.70
2023-04-12T01:03:53.422Z,12.70
2023-04-12T01:06:30.026Z,12.70
2023-04-12T01:09:11.495Z,12.70
2023-04-12T01:11:48.164Z,12.70
2023-04-12T01:14:28.591Z,12.70
2023-04-12T01:17:00.729Z,12.80
2023-04-12T01:19:57.638Z,12.70
2023-04-12T01:22:38.568Z,12.70
2023-04-12T01:25:24.476Z,12.70
2023-04-12T01:27:54.801Z,12.80
2023-04-12T01:30:22.871Z,12.70
2023-04-12T01:32:52.809Z,12.70
2023-04-12T01:35:22.757Z,12.80
2023-04-12T01:37:50.249Z,12.70
2023-04-12T01:40:19.565Z,12.70
2023-04-12T01:42:46.850Z,12.70
2023-04-12T01:45:14.518Z,12.80
2023-04-12T01:47:43.090Z,12.80
2023-04-12T01:50:21.560Z,12.80
2023-04-12T01:52:57.721Z,12.80
2023-04-12T01:55:28.106Z,12.80
2023-04-12T01:57:55.681Z,12.80
2023-04-12T02:00:24.803Z,12.80
2023-04-12T02:02:52.798Z,12.90
2023-04-12T02:05:21.632Z,12.80
2023-04-12T02:07:50.732Z,12.80
2023-04-12T02:10:30.211Z,12.80
2023-04-12T02:13:00.300Z,12.80
2023-04-12T02:15:29.013Z,12.80
2023-04-12T02:17:59.459Z,12.90
2023-04-12T02:20:27.459Z,12.90
2023-04-12T02:22:54.936Z,12.90
2023-04-12T02:25:22.082Z,12.90
2023-04-12T02:27:49.329Z,12.90
2023-04-12T02:30:16.670Z,12.80
2023-04-12T02:32:48.364Z,12.90
2023-04-12T02:35:25.264Z,12.80
2023-04-12T02:37:58.998Z,12.80
2023-04-12T02:40:30.622Z,13.00
2023-04-12T02:42:58.738Z,13.00
2023-04-12T02:45:27.480Z,13.00
2023-04-12T02:47:56.221Z,13.00
2023-04-12T02:50:29.752Z,13.10
2023-04-12T02:53:04.640Z,13.10
2023-04-12T02:55:32.477Z,13.10
2023-04-12T02:58:02.572Z,13.20
2023-04-12T03:00:29.969Z,13.20
2023-04-12T03:03:03.304Z,13.20
2023-04-12T03:05:32.473Z,13.20
2023-04-12T03:08:01.178Z,13.20
2023-04-12T03:10:37.488Z,13.20
2023-04-12T03:13:05.247Z,13.20
2023-04-12T03:15:35.957Z,13.30
2023-04-12T03:18:03.969Z,13.20
2023-04-12T03:20:39.152Z,13.20
2023-04-12T03:23:09.527Z,13.20
2023-04-12T03:25:41.241Z,13.20
2023-04-12T03:28:10.077Z,13.20
2023-04-12T03:30:48.614Z,13.20
2023-04-12T03:33:18.877Z,13.10
2023-04-12T03:35:47.598Z,13.10
2023-04-12T03:38:15.912Z,13.20
2023-04-12T03:40:43.657Z,13.10
2023-04-12T03:43:11.059Z,13.10
2023-04-12T03:45:38.403Z,13.10
2023-04-12T03:48:07.266Z,13.00
2023-04-12T03:50:45.167Z,13.10
2023-04-12T03:53:21.428Z,13.00
2023-04-12T03:55:49.294Z,13.10
2023-04-12T03:58:18.892Z,13.10
2023-04-12T04:00:47.636Z,13.10
2023-04-12T04:03:16.363Z,13.10
2023-04-12T04:05:50.501Z,13.00
2023-04-12T04:08:21.018Z,13.00
2023-04-12T04:10:50.152Z,13.00
2023-04-12T04:13:18.098Z,13.00
2023-04-12T04:15:45.577Z,13.00
2023-04-12T04:18:12.869Z,13.10
2023-04-12T04:20:40.108Z,13.10
2023-04-12T04:23:10.382Z,13.20
2023-04-12T04:25:42.078Z,13.10
2023-04-12T04:28:12.972Z,13.20
2023-04-12T04:30:40.182Z,13.20
2023-04-12T04:33:13.531Z,13.10
2023-04-12T04:35:41.658Z,13.20
2023-04-12T04:38:10.512Z,13.30
2023-04-12T04:40:39.143Z,13.30
2023-04-12T04:43:09.881Z,13.40
2023-04-12T04:45:41.666Z,13.50
2023-04-12T04:48:09.110Z,13.60
2023-04-12T04:50:36.246Z,13.60
2023-04-12T04:53:04.352Z,13.60
2023-04-12T04:55:33.459Z,13.70
2023-04-12T04:58:01.306Z,13.70
2023-04-12T05:00:28.870Z,13.80
2023-04-12T05:02:58.373Z,13.90
2023-04-12T05:05:28.802Z,13.90
2023-04-12T05:08:03.911Z,13.90
2023-04-12T05:10:37.876Z,13.90
2023-04-12T05:13:05.169Z,13.90
2023-04-12T05:15:32.415Z,14.00
2023-04-12T05:18:00.507Z,14.00
2023-04-12T05:20:28.350Z,14.00
2023-04-12T05:22:55.713Z,14.00
2023-04-12T05:25:22.880Z,14.00
2023-04-12T05:27:57.030Z,14.00
2023-04-12T05:30:25.590Z,13.90
2023-04-12T05:32:52.951Z,13.90
2023-04-12T05:35:21.432Z,13.80
2023-04-12T05:37:51.210Z,13.70
2023-04-12T05:40:18.514Z,13.50
2023-04-12T05:42:48.900Z,13.50
2023-04-12T05:45:16.151Z,13.30
2023-04-12T05:47:44.113Z,13.20
2023-04-12T05:50:11.780Z,13.10
2023-04-12T05:52:39.557Z,13.00
2023-04-12T05:55:08.921Z,13.10
2023-04-12T05:57:40.076Z,13.10
2023-04-12T06:00:13.352Z,13.10
2023-04-12T06:02:45.646Z,13.10
2023-04-12T06:05:13.875Z,13.10
2023-04-12T06:07:44.635Z,13.10
2023-04-12T06:10:17.626Z,13.10
2023-04-12T06:12:48.303Z,13.00
2023-04-12T06:15:15.698Z,13.00
2023-04-12T06:17:43.089Z,13.00
2023-04-12T06:20:10.820Z,13.00
2023-04-12T06:22:39.190Z,13.00
2023-04-12T06:25:08.460Z,12.90
2023-04-12T06:27:36.089Z,12.80
2023-04-12T06:30:03.317Z,12.70
2023-04-12T06:32:34.261Z,12.70
2023-04-12T06:35:01.906Z,12.70
2023-04-12T06:37:29.152Z,12.60
2023-04-12T06:39:56.388Z,12.60
2023-04-12T06:42:24.200Z,12.60
2023-04-12T06:44:51.552Z,12.60
2023-04-12T06:47:18.772Z,12.60
2023-04-12T06:49:46.004Z,12.60
2023-04-12T06:52:13.085Z,12.50
2023-04-12T06:54:40.578Z,12.50
2023-04-12T06:57:11.350Z,12.50
2023-04-12T06:59:38.579Z,12.50
2023-04-12T07:02:06.988Z,12.50
2023-04-12T07:04:34.342Z,12.50
2023-04-12T07:07:01.625Z,12.50
2023-04-12T07:09:32.505Z,12.60
2023-04-12T07:12:02.392Z,12.60
2023-04-12T07:14:29.701Z,12.70
2023-04-12T07:16:57.024Z,12.70
2023-04-12T07:19:24.321Z,12.70
2023-04-12T07:21:51.591Z,12.70
2023-04-12T07:24:18.780Z,12.70
2023-04-12T07:26:46.170Z,12.70
2023-04-12T07:29:13.349Z,12.70
2023-04-12T07:31:40.881Z,12.80
2023-04-12T07:34:08.344Z,12.80
2023-04-12T07:36:36.026Z,12.80
2023-04-12T07:39:03.342Z,12.80
2023-04-12T07:41:30.652Z,12.90
2023-04-12T07:43:57.821Z,12.90
2023-04-12T07:46:25.223Z,13.00
2023-04-12T07:48:52.557Z,13.00
2023-04-12T07:51:19.727Z,12.90
2023-04-12T07:53:48.637Z,12.90
2023-04-12T07:56:16.464Z,12.90
2023-04-12T07:58:43.745Z,12.90
2023-04-12T08:01:13.352Z,12.90
2023-04-12T08:03:40.785Z,12.90
2023-04-12T08:06:08.638Z,12.90
2023-04-12T08:08:36.153Z,12.90
2023-04-12T08:11:05.104Z,13.00
2023-04-12T08:13:33.224Z,13.00
2023-04-12T08:16:00.578Z,13.00
2023-04-12T08:18:29.436Z,13.00
2023-04-12T08:20:57.673Z,13.10
2023-04-12T08:23:25.924Z,13.10
2023-04-12T08:25:59.671Z,13.20
2023-04-12T08:28:28.847Z,13.30
2023-04-12T08:30:59.592Z,13.30
2023-04-12T08:33:27.286Z,13.40
2023-04-12T08:35:55.363Z,13.40
2023-04-12T08:38:30.699Z,13.40
2023-04-12T08:41:09.262Z,13.50
2023-04-12T08:43:38.362Z,13.50
2023-04-12T08:46:07.578Z,13.60
2023-04-12T08:48:35.753Z,13.50
2023-04-12T08:51:03.765Z,13.30
2023-04-12T08:53:31.807Z,12.90
2023-04-12T08:55:59.099Z,12.70
2023-04-12T08:58:26.456Z,12.50
2023-04-12T09:00:53.688Z,12.50
2023-04-12T09:03:21.883Z,12.30
2023-04-12T09:05:49.599Z,12.10
2023-04-12T09:08:17.624Z,11.80
2023-04-12T09:10:45.176Z,11.70
2023-04-12T09:13:12.452Z,11.70
2023-04-12T09:15:50.040Z,11.60
2023-04-12T09:18:18.838Z,11.60
2023-04-12T09:20:46.029Z,11.50
2023-04-12T09:23:16.264Z,11.50
2023-04-12T09:25:48.239Z,11.70
2023-04-12T09:28:20.232Z,11.70
2023-04-12T09:30:51.986Z,11.90
2023-04-12T09:33:21.035Z,12.00
2023-04-12T09:35:48.793Z,12.10
2023-04-12T09:38:16.877Z,12.20
2023-04-12T09:40:44.152Z,12.30
2023-04-12T09:43:12.616Z,12.30
2023-04-12T09:45:39.904Z,12.50
2023-04-12T09:48:08.037Z,12.60
2023-04-12T09:50:35.758Z,12.60
2023-04-12T09:53:04.446Z,12.70
2023-04-12T09:55:32.714Z,12.80
2023-04-12T09:58:04.344Z,12.90
2023-04-12T10:00:34.713Z,13.00
2023-04-12T10:03:03.631Z,13.00
2023-04-12T10:05:31.675Z,13.10
2023-04-12T10:08:01.601Z,13.10
2023-04-12T10:10:31.863Z,13.10
2023-04-12T10:13:00.764Z,13.20
2023-04-12T10:15:30.669Z,13.60
2023-04-12T10:18:02.735Z,14.10
2023-04-12T10:20:30.104Z,14.50
2023-04-12T10:22:59.913Z,14.50
2023-04-12T10:25:31.234Z,14.50
2023-04-12T10:28:14.689Z,14.50
2023-04-12T10:30:41.992Z,14.70
2023-04-12T10:33:14.512Z,14.60
2023-04-12T10:35:44.952Z,14.50
2023-04-12T10:38:12.394Z,14.50
2023-04-12T10:40:59.526Z,14.80
2023-04-12T10:43:27.939Z,14.50
2023-04-12T10:45:55.715Z,14.20
2023-04-12T10:48:26.177Z,14.20
2023-04-12T10:51:14.738Z,14.20
2023-04-12T10:53:42.206Z,14.40
2023-04-12T10:56:19.508Z,14.40
2023-04-12T10:59:02.376Z,14.40
2023-04-12T11:01:38.440Z,14.20
2023-04-12T11:04:22.037Z,13.50
2023-04-12T11:07:03.484Z,12.40
2023-04-12T11:09:42.194Z,11.80
2023-04-12T11:12:13.841Z,11.50
2023-04-12T11:14:44.362Z,11.60
2023-04-12T11:17:25.280Z,11.60
2023-04-12T11:19:56.882Z,11.60
2023-04-12T11:22:27.699Z,11.70
2023-04-12T11:24:58.741Z,12.00
2023-04-12T11:27:27.662Z,12.20
2023-04-12T11:29:57.194Z,12.80
2023-04-12T11:32:27.861Z,13.10
2023-04-12T11:34:57.385Z,13.30
2023-04-12T11:37:27.374Z,13.50
2023-04-12T11:39:58.567Z,13.50
2023-04-12T11:42:29.126Z,13.50
2023-04-12T11:45:01.535Z,13.30
2023-04-12T11:47:32.344Z,13.70
2023-04-12T11:50:00.220Z,13.90
2023-04-12T11:52:31.162Z,13.70
2023-04-12T11:55:01.976Z,13.70
2023-04-12T11:57:29.370Z,13.60
2023-04-12T11:59:59.359Z,13.30
2023-04-12T12:02:32.865Z,13.10
2023-04-12T12:05:05.850Z,12.90
2023-04-12T12:07:34.835Z,12.90
2023-04-12T12:10:02.592Z,12.80
2023-04-12T12:12:29.736Z,12.60
2023-04-12T12:15:01.034Z,12.90
2023-04-12T12:17:29.068Z,13.30
2023-04-12T12:19:59.512Z,13.50
2023-04-12T12:22:26.855Z,13.70
2023-04-12T12:24:57.172Z,13.90
2023-04-12T12:27:34.375Z,14.10
2023-04-12T12:30:04.694Z,14.30
2023-04-12T12:32:35.118Z,14.30
2023-04-12T12:35:03.005Z,13.90
2023-04-12T12:37:31.080Z,13.60
2023-04-12T12:40:14.062Z,13.10
2023-04-12T12:42:45.934Z,12.70
2023-04-12T12:45:14.598Z,12.70
2023-04-12T12:47:44.921Z,13.00
2023-04-12T12:50:14.598Z,13.30
2023-04-12T12:52:41.767Z,13.60
2023-04-12T12:55:09.492Z,14.00
2023-04-12T12:57:36.828Z,14.20
2023-04-12T13:00:06.174Z,14.20
2023-04-12T13:02:34.384Z,14.30
2023-04-12T13:05:03.337Z,14.40
2023-04-12T13:07:30.610Z,14.60
2023-04-12T13:09:57.916Z,14.80
2023-04-12T13:12:25.094Z,14.50
2023-04-12T13:14:57.967Z,14.20
2023-04-12T13:17:31.590Z,14.10
2023-04-12T13:19:59.513Z,13.80
2023-04-12T13:22:27.640Z,13.60
2023-04-12T13:24:55.844Z,13.40
2023-04-12T13:27:23.205Z,13.40
2023-04-12T13:29:50.430Z,13.50
2023-04-12T13:32:18.726Z,13.70
2023-04-12T13:34:46.006Z,13.70
2023-04-12T13:37:13.753Z,13.80
2023-04-12T13:39:41.056Z,14.00
2023-04-12T13:42:08.601Z,14.30
2023-04-12T13:44:36.756Z,14.30
2023-04-12T13:47:05.284Z,14.30
2023-04-12T13:49:32.532Z,14.30
2023-04-12T13:51:59.725Z,14.40
2023-04-12T13:54:27.024Z,14.40
2023-04-12T13:56:55.208Z,14.10
2023-04-12T13:59:22.418Z,14.00
2023-04-12T14:01:49.924Z,13.70
2023-04-12T14:04:17.264Z,13.50
2023-04-12T14:06:45.439Z,13.30
2023-04-12T14:09:25.992Z,13.10
2023-04-12T14:11:56.499Z,12.90
2023-04-12T14:14:25.533Z,13.00
2023-04-12T14:16:54.985Z,13.30
2023-04-12T14:19:22.117Z,13.50
2023-04-12T14:21:49.698Z,13.70
2023-04-12T14:24:18.178Z,13.80
2023-04-12T14:26:45.583Z,13.80
2023-04-12T14:29:13.656Z,13.70
2023-04-12T14:31:41.217Z,13.70
2023-04-12T14:34:08.952Z,13.80
2023-04-12T14:36:36.403Z,13.90
2023-04-12T14:39:04.286Z,14.00
2023-04-12T14:41:31.974Z,14.30
2023-04-12T14:44:01.124Z,14.20
2023-04-12T14:46:28.798Z,14.10
2023-04-12T14:48:57.352Z,14.00
2023-04-12T14:51:25.094Z,13.80
2023-04-12T14:53:52.278Z,13.80
2023-04-12T14:56:24.470Z,14.00
2023-04-12T14:58:54.266Z,14.20
2023-04-12T15:01:24.048Z,14.20
2023-04-12T15:03:53.141Z,14.30
2023-04-12T15:06:23.167Z,14.30
2023-04-12T15:08:54.542Z,14.30
2023-04-12T15:11:27.503Z,14.40
2023-04-12T15:13:55.625Z,14.60
2023-04-12T15:16:23.534Z,14.50
2023-04-12T15:18:52.025Z,14.50
2023-04-12T15:21:19.496Z,14.40
2023-04-12T15:23:47.700Z,14.40
2023-04-12T15:26:16.218Z,14.30
2023-04-12T15:28:43.515Z,14.10
2023-04-12T15:31:12.072Z,13.90
2023-04-12T15:33:39.506Z,13.70
2023-04-12T15:36:07.086Z,13.30
2023-04-12T15:38:42.629Z,12.90
2023-04-12T15:41:10.535Z,12.50
2023-04-12T15:43:37.723Z,12.20
2023-04-12T15:46:05.430Z,11.70
2023-04-12T15:48:32.621Z,11.30
2023-04-12T15:51:00.343Z,11.00
2023-04-12T15:53:27.650Z,11.00
2023-04-12T15:55:55.232Z,11.20
2023-04-12T15:58:24.854Z,11.30
2023-04-12T16:00:54.594Z,11.40
2023-04-12T16:03:23.833Z,11.60
2023-04-12T16:05:53.448Z,11.80
2023-04-12T16:08:22.503Z,11.90
2023-04-12T16:10:51.123Z,11.90
2023-04-12T16:13:18.566Z,12.00
2023-04-12T16:15:47.092Z,12.00
2023-04-12T16:18:14.278Z,12.10
2023-04-12T16:20:41.597Z,12.20
2023-04-12T16:23:09.013Z,12.30
2023-04-12T16:25:36.445Z,12.30
2023-04-12T16:28:03.864Z,12.40
2023-04-12T16:30:32.608Z,12.50
2023-04-12T16:33:00.014Z,12.50
2023-04-12T16:35:27.482Z,12.50
2023-04-12T16:37:55.014Z,12.60
2023-04-12T16:40:22.357Z,12.60
2023-04-12T16:42:49.601Z,12.60
2023-04-12T16:45:18.059Z,12.70
2023-04-12T16:47:47.212Z,12.70
2023-04-12T16:50:15.554Z,12.70
2023-04-12T16:52:42.952Z,12.70
2023-04-12T16:55:12.203Z,12.50
2023-04-12T16:57:41.578Z,12.50
2023-04-12T17:00:19.683Z,12.40
2023-04-12T17:02:49.523Z,12.30
2023-04-12T17:05:18.158Z,12.20
2023-04-12T17:07:49.780Z,12.20
2023-04-12T17:10:19.552Z,12.20
2023-04-12T17:12:48.089Z,12.20
2023-04-12T17:15:17.378Z,12.10
2023-04-12T17:17:48.379Z,12.10
2023-04-12T17:20:17.258Z,12.10
2023-04-12T17:22:45.233Z,12.10
2023-04-12T17:25:13.532Z,12.20
2023-04-12T17:27:41.988Z,12.20
2023-04-12T17:30:12.345Z,12.00
2023-04-12T17:32:40.507Z,11.70
2023-04-12T17:35:08.326Z,11.60
2023-04-12T17:37:37.265Z,11.50
2023-04-12T17:40:05.796Z,11.50
2023-04-12T17:42:33.078Z,11.60
2023-04-12T17:45:00.283Z,11.70
2023-04-12T17:47:27.510Z,11.70
2023-04-12T17:49:54.744Z,11.80
2023-04-12T17:52:21.966Z,11.80
2023-04-12T17:54:49.195Z,11.70
2023-04-12T17:57:16.397Z,11.60
2023-04-12T17:59:43.667Z,11.50
2023-04-12T18:02:11.126Z,11.40
2023-04-12T18:04:38.767Z,11.40
2023-04-12T18:07:09.775Z,11.40
2023-04-12T18:09:38.498Z,11.40
2023-04-12T18:12:06.269Z,11.40
2023-04-12T18:14:35.050Z,11.50
2023-04-12T18:17:02.233Z,11.40
2023-04-12T18:19:29.428Z,11.40
2023-04-12T18:21:56.612Z,11.30
2023-04-12T18:24:23.830Z,11.20
2023-04-12T18:26:51.253Z,11.20
2023-04-12T18:29:19.639Z,11.20
2023-04-12T18:31:46.989Z,11.10
2023-04-12T18:34:14.267Z,11.10
2023-04-12T18:36:42.537Z,11.00
2023-04-12T18:39:11.091Z,10.90
2023-04-12T18:41:38.340Z,10.70
2023-04-12T18:44:09.081Z,10.50
2023-04-12T18:46:36.439Z,10.30
2023-04-12T18:49:04.599Z,10.30
2023-04-12T18:51:33.099Z,10.30
2023-04-12T18:54:00.973Z,10.20
2023-04-12T18:56:28.483Z,10.30
2023-04-12T18:58:57.160Z,10.30
2023-04-12T19:01:25.413Z,10.30
2023-04-12T19:03:52.984Z,10.30
2023-04-12T19:06:20.419Z,10.30
2023-04-12T19:08:48.491Z,10.30
2023-04-12T19:11:16.157Z,10.30
2023-04-12T19:13:44.547Z,10.40
2023-04-12T19:16:12.720Z,10.40
2023-04-12T19:18:40.141Z,10.40
2023-04-12T19:21:08.509Z,10.40
2023-04-12T19:23:37.130Z,10.30
2023-04-12T19:26:05.757Z,10.30
2023-04-12T19:28:33.683Z,10.30
2023-04-12T19:31:10.406Z,10.40
2023-04-12T19:33:40.768Z,10.40
2023-04-12T19:36:09.164Z,10.40
2023-04-12T19:38:36.685Z,10.50
2023-04-12T19:41:04.462Z,10.50
2023-04-12T19:43:32.045Z,10.50
2023-04-12T19:46:01.412Z,10.60
2023-04-12T19:48:29.571Z,10.70
2023-04-12T19:50:57.056Z,10.70
2023-04-12T19:53:24.429Z,10.70
2023-04-12T19:55:52.911Z,10.70
2023-04-12T19:58:20.353Z,10.70
2023-04-12T20:00:52.469Z,10.70
2023-04-12T20:03:19.898Z,10.70
2023-04-12T20:05:47.858Z,10.70
2023-04-12T20:08:16.007Z,10.70
2023-04-12T20:10:43.346Z,10.60
2023-04-12T20:13:15.459Z,10.70
2023-04-12T20:15:43.346Z,10.60
2023-04-12T20:18:13.599Z,10.30
2023-04-12T20:20:45.252Z,10.10
2023-04-12T20:23:13.980Z,10.10
2023-04-12T20:25:42.118Z,10.10
2023-04-12T20:28:10.693Z,10.20
2023-04-12T20:30:38.700Z,10.30
2023-04-12T20:33:07.019Z,10.40
2023-04-12T20:35:35.304Z,10.50
2023-04-12T20:38:03.055Z,10.50
2023-04-12T20:40:30.565Z,10.60
2023-04-12T20:42:57.964Z,10.40
2023-04-12T20:45:25.395Z,10.30
2023-04-12T20:47:52.857Z,10.10
2023-04-12T20:50:23.130Z,9.90
2023-04-12T20:52:52.477Z,9.80
2023-04-12T20:55:19.875Z,9.80
2023-04-12T20:57:47.137Z,9.70
2023-04-12T21:00:17.664Z,9.70
2023-04-12T21:02:46.315Z,9.70
2023-04-12T21:05:17.145Z,9.70
2023-04-12T21:07:46.884Z,9.70
2023-04-12T21:10:15.091Z,9.60
2023-04-12T21:12:42.863Z,9.60
2023-04-12T21:15:11.934Z,9.50
2023-04-12T21:17:40.938Z,9.50
2023-04-12T21:20:10.166Z,9.40
2023-04-12T21:22:37.417Z,9.40
2023-04-12T21:25:04.914Z,9.40
2023-04-12T21:27:32.058Z,9.40
2023-04-12T21:29:59.431Z,9.30
2023-04-12T21:32:26.680Z,9.20
2023-04-12T21:34:53.912Z,9.10
2023-04-12T21:37:22.246Z,9.10
2023-04-12T21:39:49.372Z,9.00
2023-04-12T21:42:16.599Z,8.90
2023-04-12T21:44:43.680Z,8.90
2023-04-12T21:47:10.973Z,8.90
2023-04-12T21:49:38.148Z,8.80
2023-04-12T21:52:05.361Z,8.80
2023-04-12T21:54:36.784Z,8.80
2023-04-12T21:57:04.211Z,8.70
2023-04-12T21:59:31.304Z,8.70
2023-04-12T22:01:58.568Z,8.60
2023-04-12T22:04:25.781Z,8.40
2023-04-12T22:06:53.166Z,8.50
2023-04-12T22:09:20.378Z,8.40
2023-04-12T22:11:49.418Z,8.30
2023-04-12T22:14:16.528Z,8.30
2023-04-12T22:16:43.797Z,8.30
2023-04-12T22:19:11.037Z,8.30
2023-04-12T22:21:40.204Z,8.30
2023-04-12T22:24:08.518Z,8.40
2023-04-12T22:26:35.792Z,8.40
2023-04-12T22:29:04.511Z,8.50
2023-04-12T22:31:31.882Z,8.50
2023-04-12T22:33:59.484Z,8.50
2023-04-12T22:36:29.517Z,8.50
2023-04-12T22:38:56.907Z,8.50
2023-04-12T22:41:28.739Z,8.50
2023-04-12T22:44:01.648Z,8.40
2023-04-12T22:46:32.514Z,8.40
2023-04-12T22:49:00.884Z,8.40
2023-04-12T22:51:28.146Z,8.30
2023-04-12T22:53:55.787Z,8.30
2023-04-12T22:56:23.588Z,8.30
2023-04-12T22:58:50.835Z,8.20
2023-04-12T23:01:19.002Z,8.20
2023-04-12T23:03:46.261Z,8.10
2023-04-12T23:06:14.002Z,8.10
2023-04-12T23:08:41.315Z,8.10
2023-04-12T23:11:08.627Z,8.00
2023-04-12T23:13:35.858Z,8.00
2023-04-12T23:16:03.857Z,8.00
2023-04-12T23:18:32.847Z,8.00
2023-04-12T23:21:01.899Z,8.00
2023-04-12T23:23:29.824Z,8.00
2023-04-12T23:25:56.981Z,7.90
2023-04-12T23:28:26.755Z,7.90
2023-04-12T23:30:54.396Z,7.80
2023-04-12T23:33:22.195Z,7.80
2023-04-12T23:35:52.916Z,7.80
2023-04-12T23:38:22.385Z,7.80
2023-04-12T23:40:53.775Z,7.80
2023-04-12T23:43:22.735Z,7.80
2023-04-12T23:45:51.492Z,7.80
2023-04-12T23:48:19.387Z,7.90
2023-04-12T23:50:46.955Z,7.90
2023-04-12T23:53:15.314Z,7.90
2023-04-12T23:55:44.108Z,7.90
2023-04-12T23:58:11.376Z,8.00
